createdAt,value
2022-11-01T00:00:18.663Z,100.00
2022-11-01T00:05:21.332Z,100.00
2022-11-01T00:10:25.217Z,100.00
2022-11-01T00:15:28.206Z,100.00
2022-11-01T00:20:30.886Z,100.00
2022-11-01T00:25:34.737Z,100.00
2022-11-01T00:30:38.086Z,100.00
2022-11-01T00:35:40.601Z,100.00
2022-11-01T00:40:45.566Z,100.00
2022-11-01T00:45:48.140Z,100.00
2022-11-01T00:50:50.650Z,100.00
2022-11-01T00:55:54.516Z,100.00
2022-11-01T01:00:57.807Z,100.00
2022-11-01T01:06:00.381Z,100.00
2022-11-01T01:11:04.317Z,100.00
2022-11-01T01:22:53.538Z,100.00
2022-11-01T01:27:57.981Z,100.00
2022-11-01T01:33:00.539Z,100.00
2022-11-01T01:38:03.421Z,100.00
2022-11-01T01:43:10.554Z,100.00
2022-11-01T01:48:19.577Z,100.00
2022-11-01T01:53:27.795Z,100.00
2022-11-01T01:58:35.973Z,100.00
2022-11-01T02:03:40.924Z,100.00
2022-11-01T02:08:45.875Z,100.00
2022-11-01T02:13:50.074Z,100.00
2022-11-01T02:19:04.900Z,100.00
2022-11-01T02:24:32.212Z,100.00
2022-11-01T02:30:13.775Z,100.00
2022-11-01T02:35:24.084Z,100.00
2022-11-01T02:40:34.154Z,100.00
2022-11-01T02:45:41.414Z,100.00
2022-11-01T02:50:50.248Z,100.00
2022-11-01T02:55:53.823Z,100.00
2022-11-01T03:00:56.886Z,100.00
2022-11-01T03:06:11.622Z,100.00
2022-11-01T03:11:17.661Z,100.00
2022-11-01T03:16:25.882Z,100.00
2022-11-01T03:21:34.833Z,100.00
2022-11-01T03:26:40.097Z,100.00
2022-11-01T03:31:45.063Z,100.00
2022-11-01T03:36:52.922Z,100.00
2022-11-01T03:42:02.409Z,100.00
2022-11-01T03:47:05.274Z,100.00
2022-11-01T03:52:09.706Z,100.00
2022-11-01T03:57:12.419Z,100.00
2022-11-01T04:02:15.034Z,100.00
2022-11-01T04:07:18.961Z,100.00
2022-11-01T04:12:21.486Z,100.00
2022-11-01T04:17:41.522Z,100.00
2022-11-01T04:22:45.463Z,100.00
2022-11-01T04:27:48.054Z,100.00
2022-11-01T04:32:51.020Z,100.00
2022-11-01T04:37:59.123Z,100.00
2022-11-01T04:43:02.270Z,100.00
2022-11-01T04:48:07.267Z,100.00
2022-11-01T04:53:11.229Z,100.00
2022-11-01T04:58:14.554Z,100.00
2022-11-01T05:03:17.132Z,100.00
2022-11-01T05:08:21.042Z,100.00
2022-11-01T05:13:23.994Z,100.00
2022-11-01T05:18:26.559Z,100.00
2022-11-01T05:23:30.417Z,100.00
2022-11-01T05:28:32.954Z,100.00
2022-11-01T05:33:35.494Z,100.00
2022-11-01T05:38:39.375Z,100.00
2022-11-01T05:43:41.966Z,100.00
2022-11-01T05:48:44.476Z,100.00
2022-11-01T05:53:50.265Z,100.00
2022-11-01T05:58:52.802Z,100.00
2022-11-01T06:03:55.478Z,100.00
2022-11-01T06:09:00.314Z,100.00
2022-11-01T06:14:02.874Z,100.00
2022-11-01T06:19:05.382Z,100.00
2022-11-01T06:24:11.246Z,100.00
2022-11-01T06:29:13.792Z,100.00
2022-11-01T06:34:16.390Z,100.00
2022-11-01T06:39:20.283Z,100.00
2022-11-01T06:44:23.209Z,100.00
2022-11-01T06:49:25.723Z,99.82
2022-11-01T06:54:29.590Z,99.38
2022-11-01T06:59:32.144Z,99.20
2022-11-01T07:04:34.673Z,99.81
2022-11-01T07:09:38.540Z,100.00
2022-11-01T07:14:41.134Z,100.00
2022-11-01T07:19:43.664Z,100.00
2022-11-01T07:24:47.534Z,100.00
2022-11-01T07:29:50.046Z,100.00
2022-11-01T07:34:52.727Z,100.00
2022-11-01T07:39:56.627Z,100.00
2022-11-01T07:44:59.154Z,100.00
2022-11-01T07:50:01.678Z,100.00
2022-11-01T07:55:06.443Z,100.00
2022-11-01T08:00:10.547Z,100.00
2022-11-01T08:05:16.647Z,100.00
2022-11-01T08:10:21.032Z,100.00
2022-11-01T08:15:23.684Z,99.75
2022-11-01T08:20:27.313Z,98.58
2022-11-01T08:25:31.259Z,97.81
2022-11-01T08:30:34.604Z,96.48
2022-11-01T08:35:37.410Z,96.96
2022-11-01T08:40:41.336Z,94.88
2022-11-01T08:45:43.881Z,95.23
2022-11-01T08:50:46.447Z,95.62
2022-11-01T08:55:55.482Z,93.98
2022-11-01T09:00:58.131Z,93.50
2022-11-01T09:06:00.716Z,93.62
2022-11-01T09:11:06.241Z,92.61
2022-11-01T09:16:09.664Z,92.48
2022-11-01T09:21:12.471Z,93.22
2022-11-01T09:26:16.352Z,91.28
2022-11-01T09:31:21.432Z,90.91
2022-11-01T09:36:25.330Z,91.26
2022-11-01T09:41:35.461Z,91.35
2022-11-01T09:46:46.696Z,91.44
2022-11-01T09:51:51.934Z,91.79
2022-11-01T09:57:12.827Z,91.85
2022-11-01T10:02:32.709Z,91.90
2022-11-01T10:07:45.964Z,93.27
2022-11-01T10:13:05.114Z,93.67
2022-11-01T10:25:00.367Z,91.58
2022-11-01T10:30:08.275Z,92.48
2022-11-01T10:35:18.079Z,93.38
2022-11-01T10:40:28.850Z,92.52
2022-11-01T10:45:36.540Z,92.27
2022-11-01T10:50:40.283Z,92.58
2022-11-01T10:55:48.686Z,91.73
2022-11-01T11:00:54.480Z,91.98
2022-11-01T11:06:01.793Z,92.26
2022-11-01T11:11:10.004Z,91.97
2022-11-01T11:16:37.838Z,91.50
2022-11-01T11:21:49.132Z,91.65
2022-11-01T11:27:00.310Z,91.64
2022-11-01T11:32:09.522Z,91.62
2022-11-01T11:37:23.613Z,91.99
2022-11-01T11:42:27.306Z,90.86
2022-11-01T11:47:37.959Z,91.27
2022-11-01T11:52:42.758Z,90.11
2022-11-01T11:57:54.003Z,88.38
2022-11-01T12:03:04.805Z,89.53
2022-11-01T12:08:26.721Z,88.48
2022-11-01T12:13:35.960Z,89.30
2022-11-01T12:18:50.157Z,89.81
2022-11-01T12:30:51.945Z,88.58
2022-11-01T12:35:57.563Z,88.60
2022-11-01T12:41:11.843Z,89.50
2022-11-01T12:46:31.426Z,88.81
2022-11-01T12:51:41.265Z,89.42
2022-11-01T12:56:44.084Z,89.21
2022-11-01T13:01:53.696Z,89.30
2022-11-01T13:07:18.266Z,89.48
2022-11-01T13:12:35.885Z,88.72
2022-11-01T13:17:49.387Z,88.75
2022-11-01T13:23:28.572Z,89.10
2022-11-01T13:29:09.264Z,86.45
2022-11-01T13:34:37.941Z,87.90
2022-11-01T13:39:58.671Z,86.73
2022-11-01T13:45:25.757Z,86.33
2022-11-01T13:51:09.149Z,86.92
2022-11-01T13:56:17.041Z,88.77
2022-11-01T14:01:32.507Z,88.08
2022-11-01T14:06:37.764Z,88.92
2022-11-01T14:11:49.916Z,88.60
2022-11-01T14:17:50.454Z,89.81
2022-11-01T14:23:38.110Z,89.32
2022-11-01T14:29:06.809Z,89.90
2022-11-01T14:34:40.417Z,89.55
2022-11-01T14:39:52.029Z,90.73
2022-11-01T14:45:23.811Z,90.68
2022-11-01T14:50:41.887Z,90.97
2022-11-01T14:55:46.458Z,90.82
2022-11-01T15:00:58.540Z,90.54
2022-11-01T15:06:02.303Z,90.60
2022-11-01T15:11:07.742Z,91.53
2022-11-01T15:16:34.536Z,92.04
2022-11-01T15:21:53.888Z,91.86
2022-11-01T15:27:18.215Z,92.12
2022-11-01T15:32:43.689Z,92.21
2022-11-01T15:38:00.921Z,92.68
2022-11-01T15:43:18.641Z,92.52
2022-11-01T15:48:33.464Z,92.27
2022-11-01T15:53:40.511Z,92.17
2022-11-01T15:58:49.419Z,93.11
2022-11-01T16:03:58.403Z,92.14
2022-11-01T16:09:06.776Z,92.73
2022-11-01T16:14:26.636Z,93.37
2022-11-01T16:20:21.525Z,93.13
2022-11-01T16:25:37.532Z,92.83
2022-11-01T16:30:45.528Z,92.17
2022-11-01T16:35:51.160Z,92.62
2022-11-01T16:40:59.031Z,92.87
2022-11-01T16:46:10.088Z,93.46
2022-11-01T16:51:24.499Z,93.85
2022-11-01T16:56:42.066Z,93.82
2022-11-01T17:02:08.565Z,94.21
2022-11-01T17:07:14.659Z,94.14
2022-11-01T17:12:18.214Z,94.88
2022-11-01T17:17:25.647Z,96.05
2022-11-01T17:22:44.636Z,94.81
2022-11-01T17:27:55.982Z,95.03
2022-11-01T17:33:02.980Z,94.89
2022-11-01T17:38:12.440Z,95.17
2022-11-01T17:43:27.108Z,95.71
2022-11-01T17:48:35.953Z,95.45
2022-11-01T17:53:43.263Z,95.96
2022-11-01T17:58:51.950Z,96.48
2022-11-01T18:03:57.118Z,97.72
2022-11-01T18:09:01.327Z,97.33
2022-11-01T18:14:13.909Z,97.07
2022-11-01T18:19:39.187Z,97.79
2022-11-01T18:24:49.391Z,97.72
2022-11-01T18:29:53.742Z,97.92
2022-11-01T18:56:22.488Z,99.95
2022-11-01T19:01:31.674Z,99.73
2022-11-01T19:06:34.946Z,100.00
2022-11-01T19:11:39.422Z,100.00
2022-11-01T19:16:43.028Z,100.00
2022-11-01T19:21:46.242Z,100.00
2022-11-01T19:26:50.251Z,100.00
2022-11-01T19:31:55.454Z,100.00
2022-11-01T19:37:02.093Z,100.00
2022-11-01T19:42:26.763Z,100.00
2022-11-01T19:47:39.790Z,100.00
2022-11-01T19:52:47.486Z,100.00
2022-11-01T19:57:51.882Z,100.00
2022-11-01T20:02:58.283Z,100.00
2022-11-01T20:08:13.872Z,100.00
2022-11-01T20:13:18.536Z,100.00
2022-11-01T20:18:21.462Z,100.00
2022-11-01T20:23:26.698Z,100.00
2022-11-01T20:28:31.278Z,100.00
2022-11-01T20:33:33.936Z,100.00
2022-11-01T20:38:36.857Z,100.00
2022-11-01T20:43:41.141Z,100.00
2022-11-01T20:48:45.079Z,100.00
2022-11-01T20:53:47.756Z,100.00
2022-11-01T20:58:51.937Z,100.00
2022-11-01T21:03:55.447Z,100.00
2022-11-01T21:08:58.641Z,100.00
2022-11-01T21:14:02.535Z,100.00
2022-11-01T21:19:05.820Z,100.00
2022-11-01T21:24:26.486Z,100.00
2022-11-01T21:29:30.866Z,100.00
2022-11-01T21:34:33.913Z,100.00
2022-11-01T21:39:36.449Z,100.00
2022-11-01T21:44:42.765Z,100.00
2022-11-01T21:49:45.389Z,100.00
2022-11-01T21:54:48.903Z,100.00
2022-11-01T21:59:53.040Z,100.00
2022-11-01T22:04:55.955Z,100.00
2022-11-01T22:09:58.470Z,100.00
2022-11-01T22:15:02.355Z,100.00
2022-11-01T22:20:05.827Z,100.00
2022-11-01T22:25:09.333Z,100.00
2022-11-01T22:30:13.700Z,100.00
2022-11-01T22:35:16.221Z,100.00
2022-11-01T22:40:20.056Z,100.00
2022-11-01T22:45:24.459Z,100.00
2022-11-01T22:50:29.280Z,100.00
2022-11-01T22:55:32.406Z,100.00
2022-11-01T23:00:38.896Z,100.00
2022-11-01T23:05:42.764Z,100.00
2022-11-01T23:10:47.525Z,100.00
2022-11-01T23:15:52.051Z,100.00
2022-11-01T23:20:56.808Z,100.00
2022-11-01T23:26:03.071Z,100.00
2022-11-01T23:31:07.587Z,100.00
2022-11-01T23:36:17.167Z,100.00
2022-11-01T23:41:23.152Z,100.00
2022-11-01T23:46:27.838Z,100.00
2022-11-01T23:51:31.914Z,100.00
2022-11-01T23:56:34.470Z,100.00
